Amboy, Minnesota
Current Conditions -  °F | °C
As of 8:48 PM on Monday 22 Dec 2014 (Local Time) from KJYG Reporting Station
Drizzle Drizzle  
Wind Chill: -2°   Ceiling: 600
Heat Index:   Visibility: 4mi
Dew Point:   Wind: 9mph
Humidity: 93%   Direction: 70°ENE
Pressure: 29.55"   Gusts: NA
Location:  43.89°N, 94.16°W
Report Text: KJYG 230248Z AUTO 07008KT 4SM -DZ OVC006 02/01 A2955 RMK AO2
Loading
Personal Weather Stations






























Interactive Weather Map New forecast layout! Learn more

10-Day Weather Forecast

Advertisements
Track Severe Weather on mobile